createdAt,value
2023-01-04T00:01:12.240Z,101511.27
2023-01-04T00:03:40.444Z,101511.73
2023-01-04T00:06:11.182Z,101509.76
2023-01-04T00:08:39.412Z,101508.27
2023-01-04T00:11:10.568Z,101510.17
2023-01-04T00:13:39.153Z,101513.11
2023-01-04T00:16:11.834Z,101510.79
2023-01-04T00:18:40.400Z,101508.28
2023-01-04T00:21:10.478Z,101507.32
2023-01-04T00:23:39.646Z,101503.38
2023-01-04T00:26:12.164Z,101497.86
2023-01-04T00:28:40.648Z,101499.47
2023-01-04T00:31:11.279Z,101505.89
2023-01-04T00:33:39.817Z,101510.00
2023-01-04T00:36:10.785Z,101515.02
2023-01-04T00:38:39.832Z,101517.40
2023-01-04T00:41:18.889Z,101519.02
2023-01-04T00:43:59.315Z,101522.30
2023-01-04T00:46:27.431Z,101519.67
2023-01-04T00:49:00.082Z,101517.58
2023-01-04T00:51:30.359Z,101522.25
2023-01-04T00:53:59.780Z,101524.88
2023-01-04T00:56:29.281Z,101525.73
2023-01-04T00:58:58.503Z,101538.61
2023-01-04T01:01:28.115Z,101541.18
2023-01-04T01:03:57.906Z,101544.94
2023-01-04T01:06:27.278Z,101552.71
2023-01-04T01:08:55.613Z,101549.85
2023-01-04T01:11:23.723Z,101547.17
2023-01-04T01:13:52.502Z,101541.62
2023-01-04T01:16:51.588Z,101550.44
2023-01-04T01:19:11.337Z,101552.98
2023-01-04T01:21:39.575Z,101546.73
2023-01-04T01:24:09.970Z,101551.95
2023-01-04T01:26:37.880Z,101558.06
2023-01-04T01:29:05.781Z,101560.02
2023-01-04T01:31:33.792Z,101559.84
2023-01-04T01:34:02.950Z,101556.98
2023-01-04T01:36:30.887Z,101559.25
2023-01-04T01:38:58.856Z,101554.63
2023-01-04T01:41:29.381Z,101552.75
2023-01-04T01:44:00.042Z,101547.31
2023-01-04T01:46:34.276Z,101534.77
2023-01-04T01:49:08.989Z,101527.09
2023-01-04T01:51:38.359Z,101527.52
2023-01-04T01:54:11.646Z,101530.11
2023-01-04T01:56:42.097Z,101521.02
2023-01-04T01:59:11.618Z,101521.02
2023-01-04T02:04:42.989Z,101526.75
2023-01-04T02:07:11.855Z,101530.05
2023-01-04T02:09:40.528Z,101530.98
2023-01-04T02:12:12.379Z,101531.24
2023-01-04T02:14:42.826Z,101531.81
2023-01-04T02:17:17.462Z,101529.27
2023-01-04T02:20:05.926Z,101539.17
2023-01-04T02:23:07.640Z,101536.22
2023-01-04T02:26:09.524Z,101527.17
2023-01-04T02:28:55.315Z,101524.10
2023-01-04T02:31:32.569Z,101525.49
2023-01-04T02:34:08.256Z,101517.38
2023-01-04T02:36:40.446Z,101514.95
2023-01-04T02:39:18.795Z,101511.86
2023-01-04T02:41:53.901Z,101510.58
2023-01-04T02:44:49.461Z,101510.90
2023-01-04T02:47:42.190Z,101512.55
2023-01-04T02:50:31.147Z,101510.05
2023-01-04T02:53:01.531Z,101504.16
2023-01-04T02:55:39.990Z,101505.87
2023-01-04T02:58:18.883Z,101511.30
2023-01-04T03:01:17.252Z,101511.36
2023-01-04T03:04:15.726Z,101506.18
2023-01-04T03:06:50.961Z,101509.75
2023-01-04T03:09:23.050Z,101508.09
2023-01-04T03:12:14.138Z,101505.05
2023-01-04T03:14:47.992Z,101501.83
2023-01-04T03:17:21.005Z,101496.70
2023-01-04T03:19:54.206Z,101486.91
2023-01-04T03:22:48.233Z,101482.50
2023-01-04T03:25:40.298Z,101476.02
2023-01-04T03:28:29.205Z,101466.91
2023-01-04T03:31:19.955Z,101458.93
2023-01-04T03:34:06.946Z,101452.98
2023-01-04T03:36:45.850Z,101455.15
2023-01-04T03:39:39.295Z,101454.09
2023-01-04T03:42:35.187Z,101459.23
2023-01-04T03:45:32.428Z,101457.57
2023-01-04T03:48:26.371Z,101465.30
2023-01-04T03:51:02.370Z,101465.06
2023-01-04T03:53:33.131Z,101460.30
2023-01-04T03:56:02.222Z,101449.73
2023-01-04T03:58:30.172Z,101439.45
2023-01-04T04:01:02.721Z,101440.04
2023-01-04T04:03:49.782Z,101446.22
2023-01-04T04:06:35.907Z,101451.21
2023-01-04T04:09:04.172Z,101446.80
2023-01-04T04:11:32.375Z,101449.81
2023-01-04T04:14:00.747Z,101444.86
2023-01-04T04:16:28.954Z,101442.45
2023-01-04T04:18:57.125Z,101437.69
2023-01-04T04:21:25.062Z,101442.27
2023-01-04T04:23:55.287Z,101443.67
2023-01-04T04:26:23.943Z,101449.77
2023-01-04T04:28:51.905Z,101447.16
2023-01-04T04:31:19.977Z,101448.95
2023-01-04T04:33:48.129Z,101445.64
2023-01-04T04:36:16.161Z,101439.89
2023-01-04T04:38:44.137Z,101432.48
2023-01-04T04:41:32.209Z,101432.99
2023-01-04T04:44:00.167Z,101430.13
2023-01-04T04:46:28.138Z,101432.11
2023-01-04T04:48:56.205Z,101433.27
2023-01-04T04:51:24.203Z,101434.61
2023-01-04T04:53:52.220Z,101434.12
2023-01-04T04:56:20.210Z,101432.86
2023-01-04T04:58:48.438Z,101435.61
2023-01-04T05:01:16.894Z,101433.66
2023-01-04T05:03:45.224Z,101425.80
2023-01-04T05:06:13.271Z,101428.31
2023-01-04T05:08:41.187Z,101429.31
2023-01-04T05:11:11.210Z,101433.59
2023-01-04T05:13:39.390Z,101431.96
2023-01-04T05:16:09.322Z,101437.62
2023-01-04T05:18:37.618Z,101440.35
2023-01-04T05:21:06.011Z,101439.16
2023-01-04T05:23:33.926Z,101426.74
2023-01-04T05:26:03.172Z,101419.81
2023-01-04T05:28:33.662Z,101412.11
2023-01-04T05:31:06.265Z,101408.52
2023-01-04T05:33:34.270Z,101400.70
2023-01-04T05:36:04.369Z,101404.54
2023-01-04T05:38:32.765Z,101405.73
2023-01-04T05:41:01.847Z,101395.38
2023-01-04T05:43:29.949Z,101396.38
2023-01-04T05:45:57.923Z,101393.88
2023-01-04T05:48:28.188Z,101391.72
2023-01-04T05:50:56.148Z,101392.85
2023-01-04T05:53:25.305Z,101384.77
2023-01-04T05:55:54.193Z,101386.00
2023-01-04T05:58:24.290Z,101381.41
2023-01-04T06:00:52.476Z,101383.94
2023-01-04T06:03:20.638Z,101383.72
2023-01-04T06:05:50.560Z,101381.48
2023-01-04T06:08:18.507Z,101382.45
2023-01-04T06:10:53.507Z,101378.41
2023-01-04T06:13:21.640Z,101382.09
2023-01-04T06:15:49.604Z,101375.19
2023-01-04T06:18:17.611Z,101369.30
2023-01-04T06:20:45.581Z,101363.20
2023-01-04T06:23:13.607Z,101358.48
2023-01-04T06:25:42.870Z,101352.27
2023-01-04T06:28:11.227Z,101343.91
2023-01-04T06:30:39.279Z,101341.52
2023-01-04T06:33:07.243Z,101334.33
2023-01-04T06:35:35.565Z,101331.11
2023-01-04T06:38:03.548Z,101337.66
2023-01-04T06:40:31.485Z,101336.21
2023-01-04T06:42:59.380Z,101333.25
2023-01-04T06:45:27.376Z,101328.62
2023-01-04T06:47:55.294Z,101328.70
2023-01-04T06:50:23.723Z,101331.68
2023-01-04T06:52:51.634Z,101327.98
2023-01-04T06:55:19.608Z,101325.18
2023-01-04T06:57:47.586Z,101331.33
2023-01-04T07:00:17.777Z,101333.94
2023-01-04T07:03:13.881Z,101332.89
2023-01-04T07:05:33.811Z,101338.47
2023-01-04T07:08:07.630Z,101342.38
2023-01-04T07:10:36.566Z,101353.89
2023-01-04T07:13:05.016Z,101355.51
2023-01-04T07:15:38.112Z,101361.25
2023-01-04T07:18:08.239Z,101358.61
2023-01-04T07:20:36.843Z,101359.69
2023-01-04T07:23:05.828Z,101355.25
2023-01-04T07:25:42.690Z,101351.13
2023-01-04T07:28:10.794Z,101343.53
2023-01-04T07:30:39.226Z,101340.42
2023-01-04T07:33:07.583Z,101337.86
2023-01-04T07:35:35.738Z,101338.68
2023-01-04T07:38:04.801Z,101328.13
2023-01-04T07:40:32.981Z,101323.45
2023-01-04T07:43:01.534Z,101322.06
2023-01-04T07:45:29.789Z,101316.73
2023-01-04T07:47:58.812Z,101312.95
2023-01-04T07:50:26.803Z,101304.22
2023-01-04T07:52:54.788Z,101306.59
2023-01-04T07:55:22.699Z,101306.10
2023-01-04T07:57:53.918Z,101296.33
2023-01-04T08:00:22.297Z,101290.95
2023-01-04T08:02:50.538Z,101290.03
2023-01-04T08:05:18.871Z,101279.31
2023-01-04T08:07:47.038Z,101269.36
2023-01-04T08:10:15.251Z,101266.81
2023-01-04T08:12:44.810Z,101266.23
2023-01-04T08:15:14.445Z,101256.73
2023-01-04T08:17:42.458Z,101254.56
2023-01-04T08:20:11.447Z,101251.87
2023-01-04T08:22:40.084Z,101243.33
2023-01-04T08:25:09.528Z,101236.23
2023-01-04T08:27:37.524Z,101235.60
2023-01-04T08:30:08.296Z,101233.88
2023-01-04T08:32:36.366Z,101227.65
2023-01-04T08:35:05.584Z,101222.22
2023-01-04T08:37:34.798Z,101223.59
2023-01-04T08:40:02.783Z,101225.46
2023-01-04T08:42:31.899Z,101212.80
2023-01-04T08:45:00.572Z,101210.04
2023-01-04T08:47:29.004Z,101220.24
2023-01-04T08:49:57.877Z,101222.20
2023-01-04T08:52:26.849Z,101218.02
2023-01-04T08:54:54.805Z,101214.27
2023-01-04T08:57:22.743Z,101213.89
2023-01-04T08:59:50.708Z,101213.13
2023-01-04T09:02:23.045Z,101212.80
2023-01-04T09:04:52.017Z,101209.70
2023-01-04T09:07:20.351Z,101200.30
2023-01-04T09:09:48.399Z,101193.26
2023-01-04T09:12:16.359Z,101184.25
2023-01-04T09:14:44.548Z,101185.51
2023-01-04T09:17:14.089Z,101181.80
2023-01-04T09:19:42.222Z,101168.98
2023-01-04T09:22:10.233Z,101168.73
2023-01-04T09:24:38.237Z,101163.44
2023-01-04T09:27:06.168Z,101156.45
2023-01-04T09:29:34.149Z,101149.02
2023-01-04T09:32:02.243Z,101148.86
2023-01-04T09:34:30.404Z,101141.33
2023-01-04T09:36:58.329Z,101138.80
2023-01-04T09:40:05.873Z,101133.79
2023-01-04T09:43:20.257Z,101135.95
2023-01-04T09:45:44.066Z,101137.80
2023-01-04T09:51:07.124Z,101115.11
2023-01-04T09:53:40.621Z,101110.29
2023-01-04T09:56:16.636Z,101110.09
2023-01-04T09:58:45.202Z,101107.98
2023-01-04T10:01:16.967Z,101098.96
2023-01-04T10:03:55.163Z,101093.85
2023-01-04T10:06:23.190Z,101096.20
2023-01-04T10:08:51.386Z,101094.73
2023-01-04T10:11:39.775Z,101089.50
2023-01-04T10:14:23.825Z,101077.41
2023-01-04T10:17:17.858Z,101074.90
2023-01-04T10:23:05.847Z,101055.02
2023-01-04T10:25:45.932Z,101053.58
2023-01-04T10:28:42.064Z,101041.80
2023-01-04T10:31:40.253Z,101029.29
2023-01-04T10:34:18.952Z,101018.02
2023-01-04T10:36:49.739Z,101005.08
2023-01-04T10:39:22.595Z,100986.47
2023-01-04T10:41:56.583Z,100972.23
2023-01-04T10:44:39.551Z,100958.86
2023-01-04T10:47:14.886Z,100948.39
2023-01-04T10:49:44.286Z,100938.38
2023-01-04T10:52:19.675Z,100932.24
2023-01-04T10:54:54.792Z,100924.77
2023-01-04T10:57:26.218Z,100918.87
2023-01-04T10:59:58.931Z,100908.26
2023-01-04T11:02:35.607Z,100904.13
2023-01-04T11:05:12.547Z,100898.95
2023-01-04T11:07:45.306Z,100893.20
2023-01-04T11:10:18.175Z,100896.30
2023-01-04T11:12:46.274Z,100891.89
2023-01-04T11:15:14.525Z,100892.71
2023-01-04T11:17:43.323Z,100892.23
2023-01-04T11:20:12.017Z,100892.03
2023-01-04T11:22:45.806Z,100880.11
2023-01-04T11:25:35.602Z,100878.16
2023-01-04T11:28:13.802Z,100870.08
2023-01-04T11:30:51.357Z,100855.02
2023-01-04T11:33:20.961Z,100850.86
2023-01-04T11:35:50.557Z,100841.40
2023-01-04T11:38:20.314Z,100827.71
2023-01-04T11:41:05.018Z,100822.15
2023-01-04T11:43:34.434Z,100816.23
2023-01-04T11:46:05.218Z,100804.52
2023-01-04T11:48:36.265Z,100797.02
2023-01-04T11:51:06.035Z,100785.14
2023-01-04T11:53:36.780Z,100777.92
2023-01-04T11:56:20.160Z,100767.14
2023-01-04T11:59:12.922Z,100750.70
2023-01-04T12:01:44.098Z,100733.63
2023-01-04T12:04:20.168Z,100730.52
2023-01-04T12:06:53.530Z,100726.21
2023-01-04T12:09:22.363Z,100720.54
2023-01-04T12:11:52.601Z,100719.10
2023-01-04T12:14:26.476Z,100710.19
2023-01-04T12:17:01.368Z,100702.83
2023-01-04T12:19:30.274Z,100704.39
2023-01-04T12:22:01.520Z,100703.55
2023-01-04T12:24:34.380Z,100699.33
2023-01-04T12:27:03.864Z,100688.47
2023-01-04T12:29:56.570Z,100681.36
2023-01-04T12:32:44.934Z,100673.76
2023-01-04T12:35:59.499Z,100663.06
2023-01-04T12:39:03.925Z,100656.61
2023-01-04T12:42:20.522Z,100645.75
2023-01-04T12:45:20.499Z,100648.63
2023-01-04T12:48:08.935Z,100646.03
2023-01-04T12:51:37.377Z,100639.33
2023-01-04T12:54:23.616Z,100622.56
2023-01-04T12:57:24.520Z,100617.05
2023-01-04T12:59:57.793Z,100605.35
2023-01-04T13:02:32.313Z,100598.93
2023-01-04T13:07:53.131Z,100580.87
2023-01-04T13:10:32.018Z,100570.05
2023-01-04T13:13:13.241Z,100560.91
2023-01-04T13:15:52.655Z,100557.55
2023-01-04T13:18:36.132Z,100552.44
2023-01-04T13:21:13.443Z,100550.55
2023-01-04T13:23:53.895Z,100543.08
2023-01-04T13:26:34.947Z,100537.98
2023-01-04T13:29:23.481Z,100532.37
2023-01-04T13:32:04.290Z,100529.86
2023-01-04T13:34:54.711Z,100517.48
2023-01-04T13:38:05.781Z,100516.69
2023-01-04T13:40:49.096Z,100498.05
2023-01-04T13:43:40.017Z,100488.91
2023-01-04T13:46:15.199Z,100488.09
2023-01-04T13:48:44.123Z,100471.33
2023-01-04T13:51:17.818Z,100456.91
2023-01-04T13:53:56.688Z,100451.15
2023-01-04T13:56:27.265Z,100450.82
2023-01-04T13:58:55.876Z,100449.14
2023-01-04T14:01:27.594Z,100449.17
2023-01-04T14:03:57.886Z,100447.31
2023-01-04T14:06:31.488Z,100434.27
2023-01-04T14:09:04.485Z,100423.15
2023-01-04T14:12:06.817Z,100420.29
2023-01-04T14:14:48.638Z,100421.16
2023-01-04T14:17:26.463Z,100420.02
2023-01-04T14:20:04.571Z,100409.88
2023-01-04T14:22:50.304Z,100400.91
2023-01-04T14:25:48.004Z,100388.20
2023-01-04T14:28:31.784Z,100380.95
2023-01-04T14:31:19.048Z,100372.48
2023-01-04T14:33:49.646Z,100361.63
2023-01-04T14:36:22.236Z,100359.10
2023-01-04T14:39:00.394Z,100355.71
2023-01-04T14:41:33.515Z,100348.91
2023-01-04T14:44:10.243Z,100344.70
2023-01-04T14:46:38.700Z,100340.48
2023-01-04T14:49:08.650Z,100331.87
2023-01-04T14:51:44.859Z,100332.61
2023-01-04T14:54:20.435Z,100318.73
2023-01-04T14:56:58.268Z,100269.20
2023-01-04T14:59:28.000Z,100263.09
2023-01-04T15:01:57.610Z,100273.45
2023-01-04T15:04:27.287Z,100259.34
2023-01-04T15:06:59.142Z,100252.54
2023-01-04T15:09:27.731Z,100243.04
2023-01-04T15:11:55.800Z,100235.05
2023-01-04T15:14:24.366Z,100226.56
2023-01-04T15:16:52.378Z,100221.80
2023-01-04T15:19:21.279Z,100215.85
2023-01-04T15:21:49.207Z,100206.70
2023-01-04T15:24:17.354Z,100193.62
2023-01-04T15:26:45.542Z,100189.03
2023-01-04T15:29:13.645Z,100181.71
2023-01-04T15:31:43.086Z,100186.30
2023-01-04T15:34:11.471Z,100179.66
2023-01-04T15:36:39.929Z,100160.15
2023-01-04T15:39:13.319Z,100154.55
2023-01-04T15:41:59.634Z,100150.80
2023-01-04T15:44:27.769Z,100140.13
2023-01-04T15:46:58.477Z,100149.48
2023-01-04T15:49:31.164Z,100145.80
2023-01-04T15:51:59.807Z,100137.16
2023-01-04T15:54:28.463Z,100128.68
2023-01-04T15:56:57.062Z,100131.06
2023-01-04T15:59:25.536Z,100128.68
2023-01-04T16:01:53.846Z,100123.42
2023-01-04T16:04:22.151Z,100116.43
2023-01-04T16:06:52.035Z,100115.95
2023-01-04T16:09:20.154Z,100103.56
2023-01-04T16:12:06.410Z,100104.09
2023-01-04T16:14:36.106Z,100094.25
2023-01-04T16:17:04.101Z,100091.02
2023-01-04T16:19:33.557Z,100085.09
2023-01-04T16:22:01.557Z,100074.06
2023-01-04T16:27:21.596Z,100066.43
2023-01-04T16:29:50.394Z,100058.97
2023-01-04T16:32:19.244Z,100054.72
2023-01-04T16:34:50.064Z,100048.77
2023-01-04T16:37:18.098Z,100050.47
2023-01-04T16:42:35.805Z,100039.96
2023-01-04T16:45:04.316Z,100029.10
2023-01-04T16:47:39.966Z,100027.75
2023-01-04T16:50:09.996Z,100019.77
2023-01-04T16:52:38.101Z,100010.27
2023-01-04T16:55:08.595Z,100002.30
2023-01-04T16:57:36.545Z,99993.81
2023-01-04T17:00:07.068Z,99993.13
2023-01-04T17:02:35.805Z,99988.20
2023-01-04T17:05:04.619Z,99986.02
2023-01-04T17:07:33.415Z,99984.99
2023-01-04T17:10:01.721Z,99981.43
2023-01-04T17:12:47.518Z,99973.80
2023-01-04T17:18:06.198Z,99953.27
2023-01-04T17:20:34.355Z,99944.27
2023-01-04T17:23:02.407Z,99940.86
2023-01-04T17:25:30.544Z,99927.46
2023-01-04T17:27:58.472Z,99915.58
2023-01-04T17:30:26.402Z,99909.82
2023-01-04T17:32:54.407Z,99900.48
2023-01-04T17:35:22.330Z,99898.28
2023-01-04T17:37:50.334Z,99893.36
2023-01-04T17:40:22.866Z,99889.96
2023-01-04T17:42:51.678Z,99875.89
2023-01-04T17:45:20.150Z,99869.77
2023-01-04T17:47:48.119Z,99868.60
2023-01-04T17:50:19.349Z,99865.38
2023-01-04T17:52:48.354Z,99855.55
2023-01-04T17:55:17.327Z,99855.71
2023-01-04T17:57:45.721Z,99849.25
2023-01-04T18:00:15.719Z,99844.33
2023-01-04T18:02:44.533Z,99834.85
2023-01-04T18:05:14.028Z,99825.84
2023-01-04T18:07:42.036Z,99817.02
2023-01-04T18:10:21.366Z,99810.23
2023-01-04T18:13:03.748Z,99811.09
2023-01-04T18:15:32.488Z,99803.27
2023-01-04T18:18:02.772Z,99802.77
2023-01-04T18:20:30.954Z,99792.42
2023-01-04T18:22:59.107Z,99785.80
2023-01-04T18:25:27.095Z,99784.27
2023-01-04T18:27:55.219Z,99784.95
2023-01-04T18:30:23.204Z,99775.45
2023-01-04T18:32:51.634Z,99773.25
2023-01-04T18:35:20.204Z,99765.10
2023-01-04T18:37:48.150Z,99760.19
2023-01-04T18:40:16.368Z,99745.26
2023-01-04T18:42:47.768Z,99739.15
2023-01-04T18:45:16.574Z,99727.60
2023-01-04T18:47:46.947Z,99726.75
2023-01-04T18:50:15.926Z,99722.52
2023-01-04T18:52:44.370Z,99719.79
2023-01-04T18:55:12.547Z,99715.20
2023-01-04T18:57:40.905Z,99714.69
2023-01-04T19:00:13.393Z,99706.38
2023-01-04T19:02:42.090Z,99705.19
2023-01-04T19:05:13.027Z,99700.42
2023-01-04T19:07:41.835Z,99694.83
2023-01-04T19:10:10.187Z,99688.52
2023-01-04T19:12:38.474Z,99687.51
2023-01-04T19:15:16.977Z,99684.79
2023-01-04T19:17:50.100Z,99669.69
2023-01-04T19:20:18.568Z,99675.45
2023-01-04T19:22:50.663Z,99668.84
2023-01-04T19:25:23.131Z,99662.38
2023-01-04T19:27:55.009Z,99656.59
2023-01-04T19:30:27.509Z,99654.38
2023-01-04T19:32:55.717Z,99640.63
2023-01-04T19:35:24.916Z,99641.30
2023-01-04T19:37:53.046Z,99636.55
2023-01-04T19:40:21.328Z,99637.22
2023-01-04T19:42:49.333Z,99633.99
2023-01-04T19:45:17.553Z,99629.40
2023-01-04T19:47:48.799Z,99626.33
2023-01-04T19:50:20.713Z,99620.55
2023-01-04T19:52:49.622Z,99614.60
2023-01-04T19:55:18.111Z,99612.73
2023-01-04T19:57:49.852Z,99611.21
2023-01-04T20:00:21.806Z,99610.19
2023-01-04T20:02:50.751Z,99605.60
2023-01-04T20:05:19.264Z,99602.19
2023-01-04T20:07:48.561Z,99602.35
2023-01-04T20:10:16.734Z,99596.07
2023-01-04T20:13:02.322Z,99593.00
2023-01-04T20:15:29.416Z,99590.95
2023-01-04T20:18:01.260Z,99587.89
2023-01-04T20:20:29.313Z,99589.92
2023-01-04T20:23:09.163Z,99585.30
2023-01-04T20:25:40.754Z,99588.20
2023-01-04T20:28:09.030Z,99583.10
2023-01-04T20:30:37.686Z,99578.67
2023-01-04T20:33:06.595Z,99573.89
2023-01-04T20:35:38.532Z,99569.98
2023-01-04T20:38:06.647Z,99565.54
2023-01-04T20:40:38.574Z,99556.52
2023-01-04T20:43:25.215Z,99554.30
2023-01-04T20:45:55.055Z,99548.87
2023-01-04T20:48:26.811Z,99551.25
2023-01-04T20:50:55.388Z,99546.33
2023-01-04T20:53:29.231Z,99544.48
2023-01-04T20:56:09.324Z,99540.54
2023-01-04T20:58:38.088Z,99538.33
2023-01-04T21:01:11.025Z,99534.90
2023-01-04T21:03:44.123Z,99533.88
2023-01-04T21:06:14.909Z,99527.41
2023-01-04T21:08:44.790Z,99526.89
2023-01-04T21:11:14.012Z,99526.70
2023-01-04T21:13:42.427Z,99529.08
2023-01-04T21:16:11.109Z,99512.58
2023-01-04T21:18:39.261Z,99512.06
2023-01-04T21:21:08.912Z,99511.20
2023-01-04T21:23:37.899Z,99515.76
2023-01-04T21:26:07.774Z,99510.79
2023-01-04T21:28:36.363Z,99501.77
2023-01-04T21:31:10.244Z,99490.37
2023-01-04T21:33:38.520Z,99486.09
2023-01-04T21:36:12.025Z,99475.69
2023-01-04T21:38:40.105Z,99464.62
2023-01-04T21:41:09.699Z,99461.02
2023-01-04T21:43:38.133Z,99454.39
2023-01-04T21:46:08.120Z,99439.76
2023-01-04T21:48:36.366Z,99442.95
2023-01-04T21:51:06.608Z,99440.38
2023-01-04T21:53:36.175Z,99440.70
2023-01-04T21:56:06.724Z,99442.70
2023-01-04T21:58:35.329Z,99444.04
2023-01-04T22:01:09.147Z,99438.59
2023-01-04T22:03:37.176Z,99432.77
2023-01-04T22:06:05.888Z,99439.39
2023-01-04T22:08:34.761Z,99437.83
2023-01-04T22:11:04.135Z,99438.31
2023-01-04T22:13:32.194Z,99433.67
2023-01-04T22:16:04.164Z,99427.20
2023-01-04T22:18:32.313Z,99417.98
2023-01-04T22:21:05.322Z,99408.77
2023-01-04T22:23:33.928Z,99409.42
2023-01-04T22:26:02.232Z,99403.29
2023-01-04T22:28:36.347Z,99396.64
2023-01-04T22:31:07.050Z,99395.46
2023-01-04T22:33:36.220Z,99398.17
2023-01-04T22:36:06.230Z,99391.39
2023-01-04T22:38:35.097Z,99390.39
2023-01-04T22:41:07.067Z,99382.91
2023-01-04T22:43:35.783Z,99375.75
2023-01-04T22:46:07.637Z,99364.34
2023-01-04T22:48:35.895Z,99357.81
2023-01-04T22:51:07.812Z,99354.05
2023-01-04T22:53:36.928Z,99347.71
2023-01-04T22:56:24.099Z,99347.52
2023-01-04T22:58:55.368Z,99335.25
2023-01-04T23:01:26.061Z,99332.17
2023-01-04T23:03:55.439Z,99335.70
2023-01-04T23:06:25.130Z,99328.21
2023-01-04T23:08:58.718Z,99315.61
2023-01-04T23:11:29.558Z,99312.36
2023-01-04T23:14:00.530Z,99306.71
2023-01-04T23:16:32.996Z,99297.36
2023-01-04T23:19:02.234Z,99301.21
2023-01-04T23:21:37.708Z,99293.20
2023-01-04T23:24:07.265Z,99292.50
2023-01-04T23:26:35.307Z,99284.48
2023-01-04T23:29:03.998Z,99285.84
2023-01-04T23:31:33.652Z,99283.64
2023-01-04T23:34:04.675Z,99280.90
2023-01-04T23:36:34.297Z,99271.17
2023-01-04T23:39:04.950Z,99271.98
2023-01-04T23:41:50.669Z,99270.42
2023-01-04T23:46:54.312Z,99264.07
2023-01-04T23:49:23.569Z,99260.48
2023-01-04T23:51:52.526Z,99260.45
2023-01-04T23:54:21.943Z,99254.30
2023-01-04T23:56:50.146Z,99249.84
2023-01-04T23:59:18.697Z,99245.03
